KPDXKRDM

Guest
Details From KPDX - Portland Intl
To KRDM - Roberts Fld
Flight Number -
Tags Generated
Created
Modified
Stats Distance 101 nm / 187 km
Max Altitude 0 ft / 0 m
Waypoints 2
Social Downloads 4
Likes 0
Share VATSIM

Download

Looking for another format? Having issues loading an existing format? Contact us
Advertisement - Login to hide

Notes

Generated

Route

KPDX KRDM

ID Type Via Altitude Latitude Longitude Leg Dist Tot Dist Heading (true) Name
O KPDX APT - 0 ft / 0 m 45.58243˚ -122.61681˚ - 0 nm - -
O KRDM APT - 0 ft / 0 m 44.25892˚ -121.16115˚ 100 nm 100 nm 142° / 143° -

Altitude Profile

Advertisement - Login to hide

KPDX

Details ICAO KPDX (PDX)
Name PORTLAND INTL
Region United States
Timezone America/Los_Angeles (UTC-8.0)
Stats Elevation 30 ft / 9 m (AMSL)
Location 45.588839° -122.597259°
Runways 3
Magnetic Variation 15.294° E

METAR

KPDX 132353Z 12010KT 10SM FEW140 FEW200 SCT250 06/M02 A3036 RMK AO2 SLP281 ACSL NE-E CCSL S T00561017 10078 20033 55002

Decode

TAF

TAF KPDX 132320Z 1400/1424 VRB04KT P6SM SCT250 FM140300 10010KT P6SM SCT250 FM141700 09005KT P6SM FEW250

Decode

Departure Runways

ID Width Length Bearing (true) Bearing (mag) Surface Threshold Offset Overrun Length
03 150 ft / 46 m 6,994 ft / 2,132 m 44.93° 29.64° Asphalt 0 ft / 0 m 0 ft / 0 m
10L 150 ft / 46 m 7,986 ft / 2,434 m 119.11° 103.82° Asphalt 0 ft / 0 m 0 ft / 0 m
10R 150 ft / 46 m 10,980 ft / 3,347 m 119.09° 103.80° Asphalt 0 ft / 0 m 0 ft / 0 m
21 150 ft / 46 m 6,994 ft / 2,132 m 224.94° 209.65° Asphalt 680 ft / 207 m 0 ft / 0 m
28L 150 ft / 46 m 10,980 ft / 3,347 m 299.12° 283.83° Asphalt 0 ft / 0 m 1,000 ft / 305 m
28R 150 ft / 46 m 7,986 ft / 2,434 m 299.13° 283.84° Asphalt 0 ft / 0 m 0 ft / 0 m

KRDM

Details ICAO KRDM (RDM)
Name Roberts Fld
Region United States
Timezone America/Los_Angeles (UTC-8.0)
Stats Elevation 3,077 ft / 938 m (AMSL)
Location 44.254066° -121.149963°
Runways 2
Magnetic Variation 14.716° E

METAR

KRDM 140037Z 36006KT 3SM BR OVC002 M06/M06 A3045 RMK AO2 I1000 T10561061

Decode

TAF

TAF KRDM 132320Z 1400/1424 30006KT 1SM BR OVC003 FM140600 VRB02KT 1/2SM FZFG VV002 TEMPO 1413/1417 1/4SM FZFG VV001 FM141800 VRB04KT 1SM BR OVC004 FM142100 VRB04KT P6SM SCT005

Decode

Destination Runways

ID Width Length Bearing (true) Bearing (mag) Surface Threshold Offset Overrun Length
04 150 ft / 46 m 7,028 ft / 2,142 m 60.26° 45.54° Asphalt 0 ft / 0 m 0 ft / 0 m
10 100 ft / 30 m 6,987 ft / 2,130 m 121.97° 107.25° Asphalt 0 ft / 0 m 0 ft / 0 m
22 150 ft / 46 m 7,028 ft / 2,142 m 240.28° 225.56° Asphalt 0 ft / 0 m 0 ft / 0 m
28 100 ft / 30 m 6,987 ft / 2,130 m 301.99° 287.27° Asphalt 0 ft / 0 m 0 ft / 0 m

Approach Navaids

Runway Type Ident Frequency Range Bearing (true) Bearing (mag) Slope Elevation
22 Localiser IRDM 109.10 MHz 18 nm / 33 km 240.27° 225.55° - 3,077 ft / 938 m (AMSL)
22 Glidescope IRDM 109.10 MHz 10 nm / 19 km 240.27° 225.56° 3.00° 3,052 ft / 930 m (AMSL)

Popular Alternatives